Time;durP1;ratioP1;P1;durP2;ratioP2;P2;SDS_P1;SDS_P2;PMS_P1;PMS_P2;Temp;Humidity;BMP_temperature;BMP_pressure;BME280_temperature;BME280_humidity;BME280_pressure;Samples;Min_cycle;Max_cycle;Signal;HPM_P1;HPM_P2
2023/07/29 00:00:39;;;;;;;5.13;4.72;;;;;;;23.17;83.58;100506.09;5052849;27;101008;-74
2023/07/29 00:03:05;;;;;;;7.15;4.72;;;;;;;23.02;84.11;100489.50;5055837;27;96801;-74
2023/07/29 00:05:32;;;;;;;5.72;5.07;;;;;;;23.25;83.05;100498.13;5054101;27;96950;-74
2023/07/29 00:07:58;;;;;;;7.38;5.32;;;;;;;23.29;82.82;100495.03;5052575;27;98405;-74
2023/07/29 00:10:26;;;;;;;5.30;4.45;;;;;;;23.30;82.48;100491.31;5056303;27;98719;-73
2023/07/29 00:12:53;;;;;;;5.13;4.63;;;;;;;23.39;81.94;100484.25;5053240;27;96912;-74
2023/07/29 00:15:20;;;;;;;5.70;5.00;;;;;;;23.07;82.75;100495.31;5053320;27;97043;-74
2023/07/29 00:17:46;;;;;;;5.32;4.82;;;;;;;22.87;83.37;100498.97;5054942;27;97878;-73
2023/07/29 00:20:12;;;;;;;6.30;5.15;;;;;;;22.84;84.00;100501.94;5056354;27;99220;-74
2023/07/29 00:22:39;;;;;;;5.78;5.28;;;;;;;22.92;83.28;100502.06;5056080;27;96972;-72
2023/07/29 00:25:06;;;;;;;6.10;5.50;;;;;;;22.93;83.52;100496.56;5051773;27;98816;-73
2023/07/29 00:27:34;;;;;;;8.95;5.97;;;;;;;22.81;83.59;100486.91;5057875;27;98879;-74
2023/07/29 00:30:00;;;;;;;9.68;6.07;;;;;;;22.94;83.31;100494.72;5054968;27;98745;-73
2023/07/29 00:32:30;;;;;;;7.28;5.90;;;;;;;22.73;84.19;100489.44;5052387;27;96869;-74
2023/07/29 00:34:57;;;;;;;7.20;5.90;;;;;;;22.82;83.82;100485.06;5052286;27;96989;-74
2023/07/29 00:37:23;;;;;;;7.05;6.38;;;;;;;22.95;83.47;100491.03;5057643;27;99120;-75
2023/07/29 00:39:50;;;;;;;11.38;6.45;;;;;;;22.91;83.47;100489.59;5057802;27;102410;-74
2023/07/29 00:42:16;;;;;;;8.55;5.75;;;;;;;22.71;84.13;100487.84;5056074;27;96649;-75
2023/07/29 00:44:44;;;;;;;8.38;6.63;;;;;;;22.73;84.16;100488.56;5050436;27;97910;-74
2023/07/29 00:47:13;;;;;;;6.88;6.13;;;;;;;22.55;84.65;100494.59;5057211;27;99382;-75
2023/07/29 00:49:40;;;;;;;9.00;6.47;;;;;;;22.46;84.61;100487.31;5051603;27;99825;-74
2023/07/29 00:52:07;;;;;;;9.90;7.18;;;;;;;22.60;84.46;100488.78;5054155;27;96812;-75
2023/07/29 00:54:33;;;;;;;9.73;7.13;;;;;;;22.55;84.75;100485.66;5059355;27;96915;-74
2023/07/29 00:57:00;;;;;;;10.32;7.05;;;;;;;22.71;84.54;100485.97;5057073;27;99392;-74
2023/07/29 00:59:28;;;;;;;10.65;7.82;;;;;;;22.77;83.79;100485.47;5057713;27;98972;-73
2023/07/29 01:01:55;;;;;;;8.25;7.45;;;;;;;22.95;83.04;100480.25;5058158;27;96947;-73
2023/07/29 01:04:22;;;;;;;8.20;7.40;;;;;;;22.81;83.37;100476.13;5051131;27;96879;-74
2023/07/29 01:06:59;;;;;;;8.90;7.10;;;;;;;22.93;82.83;100474.16;5053811;27;98349;-75
2023/07/29 01:09:34;;;;;;;8.18;7.35;;;;;;;22.86;83.07;100464.91;5052897;27;98727;-74
2023/07/29 01:12:09;;;;;;;12.48;7.90;;;;;;;22.84;83.35;100467.75;5055946;27;96763;-73
2023/07/29 01:14:42;;;;;;;9.38;7.43;;;;;;;22.83;83.50;100463.38;5057864;27;96801;-74
2023/07/29 01:17:19;;;;;;;11.18;7.85;;;;;;;22.72;83.71;100457.19;5053170;27;98897;-74
2023/07/29 01:20:00;;;;;;;8.50;7.50;;;;;;;22.86;83.06;100463.09;5060496;27;98941;-73
2023/07/29 01:22:27;;;;;;;10.50;8.05;;;;;;;22.58;84.07;100459.31;5050190;27;96732;-72
2023/07/29 01:24:55;;;;;;;9.70;7.35;;;;;;;22.79;83.40;100453.84;5052535;27;99369;-73
2023/07/29 01:27:21;;;;;;;9.95;7.93;;;;;;;23.04;82.21;100447.06;5052146;27;101565;-73
2023/07/29 01:29:48;;;;;;;10.23;7.65;;;;;;;22.97;82.28;100446.78;5057394;27;102111;-74
2023/07/29 01:32:22;;;;;;;8.82;7.93;;;;;;;22.98;82.05;100440.41;5050081;27;96946;-74
2023/07/29 01:34:54;;;;;;;8.98;7.85;;;;;;;22.80;82.75;100447.47;5048466;27;96868;-73
2023/07/29 01:37:26;;;;;;;11.50;7.60;;;;;;;22.97;81.88;100445.94;5053184;27;97625;-73
2023/07/29 01:39:59;;;;;;;8.68;7.78;;;;;;;22.71;82.87;100450.13;5048308;27;102208;-73
2023/07/29 01:42:25;;;;;;;8.82;7.72;;;;;;;22.63;83.35;100454.38;5042475;27;96962;-73
2023/07/29 01:44:52;;;;;;;8.15;7.35;;;;;;;22.59;83.26;100450.25;5050020;27;97133;-73
2023/07/29 01:47:19;;;;;;;9.95;7.38;;;;;;;22.40;84.27;100460.97;5052731;27;97672;-73
2023/07/29 01:49:48;;;;;;;12.73;6.78;;;;;;;22.48;84.07;100461.13;5047315;27;99361;-72
2023/07/29 01:52:14;;;;;;;8.02;7.28;;;;;;;22.50;83.43;100461.00;5048092;27;96975;-73
2023/07/29 01:54:41;;;;;;;8.85;6.28;;;;;;;22.62;83.52;100458.06;5046860;27;96830;-73
2023/07/29 01:57:08;;;;;;;10.18;6.97;;;;;;;22.72;82.57;100457.19;5050795;27;99369;-72
2023/07/29 01:59:35;;;;;;;7.80;6.93;;;;;;;22.59;82.41;100458.31;5052496;27;99063;-74
2023/07/29 02:02:01;;;;;;;9.48;7.05;;;;;;;22.67;82.53;100457.63;5056261;27;96825;-75
2023/07/29 02:04:28;;;;;;;9.73;7.28;;;;;;;22.11;83.98;100457.31;5053439;27;97093;-74
2023/07/29 02:06:55;;;;;;;7.88;6.97;;;;;;;22.46;82.80;100463.09;5059234;27;100118;-74
2023/07/29 02:09:21;;;;;;;9.30;7.55;;;;;;;22.29;83.88;100471.84;5053181;27;99335;-74
2023/07/29 02:11:48;;;;;;;8.38;7.57;;;;;;;22.33;83.31;100456.25;5063761;27;96766;-73
2023/07/29 02:14:15;;;;;;;8.68;7.38;;;;;;;22.24;83.73;100458.78;5052556;27;97685;-73
2023/07/29 02:16:42;;;;;;;7.68;6.88;;;;;;;22.35;83.45;100457.81;5059059;27;100669;-74
2023/07/29 02:19:08;;;;;;;8.68;7.32;;;;;;;22.36;83.61;100456.84;5053063;27;99260;-72
2023/07/29 02:21:35;;;;;;;9.13;7.68;;;;;;;22.45;83.20;100450.63;5069795;27;96738;-74
2023/07/29 02:24:01;;;;;;;16.23;7.90;;;;;;;22.25;83.85;100444.31;5053442;27;97172;-72
2023/07/29 02:26:28;;;;;;;8.93;8.02;;;;;;;22.25;84.10;100455.09;5052741;27;98918;-73
2023/07/29 02:28:54;;;;;;;7.97;7.22;;;;;;;22.52;82.97;100454.47;5051617;27;99218;-74
2023/07/29 02:31:23;;;;;;;8.85;7.95;;;;;;;22.16;84.60;100449.69;5053383;27;96811;-74
2023/07/29 02:33:50;;;;;;;9.63;7.45;;;;;;;22.23;84.22;100453.53;5055097;27;96769;-75
2023/07/29 02:36:17;;;;;;;9.93;8.05;;;;;;;22.42;83.46;100453.59;5061202;27;99307;-74
2023/07/29 02:38:44;;;;;;;9.45;8.02;;;;;;;22.47;83.49;100458.56;5060220;27;98797;-74
2023/07/29 02:41:12;;;;;;;10.70;8.18;;;;;;;22.46;83.26;100452.34;5058412;27;97065;-74
2023/07/29 02:43:39;;;;;;;13.20;8.18;;;;;;;22.59;82.89;100455.63;5054118;27;97831;-74
2023/07/29 02:46:05;;;;;;;9.90;8.50;;;;;;;22.57;82.70;100449.56;5058793;27;99531;-74
2023/07/29 02:48:33;;;;;;;10.07;8.00;;;;;;;22.56;82.25;100452.38;5052790;27;98701;-74
2023/07/29 02:51:00;;;;;;;10.80;8.18;;;;;;;22.59;82.16;100446.69;5053896;27;96678;-75
2023/07/29 02:53:26;;;;;;;10.35;8.30;;;;;;;22.43;82.88;100446.38;5052465;27;96908;-74
2023/07/29 02:55:52;;;;;;;9.35;8.30;;;;;;;22.25;83.72;100454.28;5050108;27;99201;-74
2023/07/29 02:58:19;;;;;;;11.18;7.55;;;;;;;22.50;82.51;100453.78;5047243;27;98800;-73
2023/07/29 03:00:48;;;;;;;9.60;8.30;;;;;;;22.31;82.88;100456.41;5057864;27;96905;-73
2023/07/29 03:03:14;;;;;;;11.35;8.32;;;;;;;22.41;82.55;100451.91;5061382;27;96851;-73
2023/07/29 03:05:42;;;;;;;9.52;8.13;;;;;;;22.44;82.66;100456.16;5050121;27;99339;-73
2023/07/29 03:08:08;;;;;;;10.40;7.95;;;;;;;22.37;82.78;100472.00;5054455;27;98049;-75
2023/07/29 03:10:36;;;;;;;8.40;7.50;;;;;;;22.13;83.18;100460.69;5059779;27;100187;-74
2023/07/29 03:13:03;;;;;;;8.60;7.15;;;;;;;22.28;83.14;100459.38;5055004;27;97556;-74
2023/07/29 03:15:29;;;;;;;8.82;7.05;;;;;;;22.36;82.87;100456.84;5052356;27;99242;-75
2023/07/29 03:17:56;;;;;;;8.25;7.30;;;;;;;22.42;82.86;100456.28;5058260;27;98818;-74
2023/07/29 03:20:22;;;;;;;12.73;7.65;;;;;;;22.48;82.50;100441.44;5052234;27;100909;-75
2023/07/29 03:22:50;;;;;;;10.15;7.93;;;;;;;22.49;82.14;100452.06;5065045;27;96778;-75
2023/07/29 03:25:16;;;;;;;8.35;7.55;;;;;;;22.39;82.47;100448.47;5052338;27;97810;-74
2023/07/29 03:27:43;;;;;;;13.13;8.10;;;;;;;22.23;82.36;100450.84;5057064;27;96794;-74
2023/07/29 03:30:10;;;;;;;8.90;8.00;;;;;;;22.19;82.98;100439.50;5052609;27;96789;-76
2023/07/29 03:32:39;;;;;;;9.15;8.25;;;;;;;22.09;83.33;100444.00;5053600;27;96756;-75
2023/07/29 03:35:06;;;;;;;9.45;7.78;;;;;;;22.09;83.40;100437.75;5048302;27;99292;-72
2023/07/29 03:37:32;;;;;;;12.30;7.88;;;;;;;22.11;83.27;100442.03;5051740;27;98866;-72
2023/07/29 03:40:00;;;;;;;10.13;7.03;;;;;;;21.93;84.07;100440.03;5056816;27;96896;-72
2023/07/29 03:42:26;;;;;;;9.00;8.05;;;;;;;22.12;83.50;100441.00;5051440;27;96961;-73
2023/07/29 03:44:56;;;;;;;10.85;7.68;;;;;;;21.90;84.35;100445.72;5057103;27;101475;-73
2023/07/29 03:47:22;;;;;;;8.10;7.30;;;;;;;22.27;82.35;100438.81;5058781;27;101547;-73
2023/07/29 03:49:48;;;;;;;11.82;7.45;;;;;;;21.91;83.78;100437.50;5054530;27;97205;-74
2023/07/29 03:52:15;;;;;;;11.18;8.23;;;;;;;21.99;83.54;100434.19;5052820;27;97110;-73
2023/07/29 03:54:41;;;;;;;9.48;8.07;;;;;;;22.04;83.44;100431.94;5050902;27;98103;-74
2023/07/29 03:57:09;;;;;;;8.73;7.82;;;;;;;22.19;82.65;100438.63;5054441;27;99196;-73
2023/07/29 03:59:36;;;;;;;8.70;7.80;;;;;;;22.34;82.20;100433.72;5055840;27;97305;-74
2023/07/29 04:02:02;;;;;;;9.38;7.60;;;;;;;22.24;82.62;100442.66;5050546;27;97271;-73
2023/07/29 04:04:28;;;;;;;10.25;7.85;;;;;;;22.32;81.96;100438.44;5058418;27;98950;-73
2023/07/29 04:06:55;;;;;;;10.75;8.70;;;;;;;22.32;82.08;100433.88;5051858;27;98869;-73
2023/07/29 04:09:22;;;;;;;8.88;8.07;;;;;;;22.38;81.54;100438.72;5049019;27;98404;-74
2023/07/29 04:11:48;;;;;;;8.55;7.50;;;;;;;22.13;82.63;100439.19;5055438;27;98624;-74
2023/07/29 04:14:16;;;;;;;8.63;7.60;;;;;;;22.30;82.50;100441.25;5045673;27;101579;-74
2023/07/29 04:16:43;;;;;;;8.57;7.78;;;;;;;22.24;82.52;100437.25;5053061;27;97530;-73
2023/07/29 04:19:09;;;;;;;8.93;7.82;;;;;;;22.36;81.57;100429.06;5049727;27;96861;-75
2023/07/29 04:21:36;;;;;;;9.20;7.25;;;;;;;22.42;81.76;100428.53;5047113;27;96998;-75
2023/07/29 04:24:02;;;;;;;8.38;7.18;;;;;;;22.57;81.10;100427.16;5056308;27;98915;-74
2023/07/29 04:26:28;;;;;;;9.13;8.05;;;;;;;22.72;80.61;100424.88;5052573;27;99227;-75
2023/07/29 04:28:55;;;;;;;10.40;7.38;;;;;;;22.60;80.70;100430.41;5046570;27;98019;-75
2023/07/29 04:31:26;;;;;;;8.25;7.38;;;;;;;22.46;81.21;100428.09;5048926;27;97040;-74
2023/07/29 04:33:52;;;;;;;9.73;7.85;;;;;;;22.80;80.36;100433.16;5053344;27;101762;-74
2023/07/29 04:36:19;;;;;;;8.60;7.70;;;;;;;22.80;79.98;100431.31;5053903;27;98919;-73
2023/07/29 04:38:45;;;;;;;9.38;7.78;;;;;;;22.97;79.64;100429.78;5045837;27;96829;-74
2023/07/29 04:41:12;;;;;;;7.38;6.55;;;;;;;23.24;78.69;100427.19;5050740;27;97206;-74
2023/07/29 04:43:38;;;;;;;10.27;7.03;;;;;;;23.36;77.59;100436.00;5052758;27;98881;-73
2023/07/29 04:46:07;;;;;;;7.95;7.13;;;;;;;23.27;78.01;100440.41;5051775;27;99285;-73
2023/07/29 04:48:35;;;;;;;7.40;6.43;;;;;;;23.16;78.37;100442.41;5050796;27;96868;-72
2023/07/29 04:51:01;;;;;;;10.60;7.50;;;;;;;23.15;78.39;100438.88;5048042;27;98142;-71
2023/07/29 04:53:28;;;;;;;7.47;6.72;;;;;;;23.39;77.54;100431.16;5048111;27;99199;-71
2023/07/29 04:55:54;;;;;;;8.75;7.38;;;;;;;23.64;76.84;100439.66;5052996;27;98709;-71
2023/07/29 04:58:20;;;;;;;7.40;6.70;;;;;;;23.68;76.73;100431.16;5049370;27;96951;-70
2023/07/29 05:00:47;;;;;;;8.07;6.63;;;;;;;24.01;76.01;100428.91;5050909;27;97206;-72
2023/07/29 05:03:13;;;;;;;7.13;6.10;;;;;;;23.92;75.66;100425.25;5059993;27;98858;-71
2023/07/29 05:05:41;;;;;;;7.15;6.45;;;;;;;24.06;74.94;100432.88;5049636;27;99163;-70
2023/07/29 05:08:08;;;;;;;7.68;6.53;;;;;;;24.00;75.75;100429.91;5054760;27;97098;-70
2023/07/29 05:10:35;;;;;;;7.65;6.30;;;;;;;24.22;73.97;100429.53;5053471;27;96927;-71
2023/07/29 05:13:02;;;;;;;7.60;6.50;;;;;;;24.31;74.24;100430.50;5062771;27;99322;-74
2023/07/29 05:15:28;;;;;;;6.63;5.82;;;;;;;24.12;74.84;100434.97;5057710;27;99379;-74
2023/07/29 05:17:55;;;;;;;10.70;6.00;;;;;;;24.42;74.12;100427.59;5044888;27;97199;-74
2023/07/29 05:20:21;;;;;;;6.78;6.07;;;;;;;24.49;73.57;100426.84;5054701;27;96906;-72
2023/07/29 05:22:49;;;;;;;6.65;6.05;;;;;;;24.66;73.36;100424.34;5055621;27;100987;-72
2023/07/29 05:25:15;;;;;;;6.93;6.32;;;;;;;24.87;72.37;100417.66;5050236;27;98912;-72
2023/07/29 05:27:42;;;;;;;6.22;5.63;;;;;;;25.20;71.34;100413.44;5053004;27;96865;-72
2023/07/29 05:30:09;;;;;;;6.57;6.03;;;;;;;25.55;70.34;100415.19;5054385;27;96904;-72
2023/07/29 05:32:35;;;;;;;7.80;5.88;;;;;;;25.26;70.18;100420.91;5051521;27;98977;-72
2023/07/29 05:35:03;;;;;;;10.18;6.20;;;;;;;24.95;71.39;100428.56;5053493;27;99037;-73
2023/07/29 05:37:29;;;;;;;9.20;6.15;;;;;;;25.17;69.99;100429.94;5053281;27;97340;-73
2023/07/29 05:39:57;;;;;;;8.07;6.07;;;;;;;24.98;70.93;100428.25;5055219;27;96878;-73
2023/07/29 05:42:23;;;;;;;9.13;6.10;;;;;;;25.01;71.15;100432.50;5053257;27;101039;-75
2023/07/29 05:44:50;;;;;;;7.65;5.55;;;;;;;24.72;72.39;100432.69;5057467;27;98809;-74
2023/07/29 05:47:16;;;;;;;7.28;6.47;;;;;;;24.74;72.70;100433.41;5057355;27;96936;-72
2023/07/29 05:49:42;;;;;;;6.38;5.70;;;;;;;24.63;73.09;100433.59;5054362;27;96859;-73
2023/07/29 05:52:09;;;;;;;7.30;6.47;;;;;;;24.86;73.15;100434.03;5054166;27;101879;-74
2023/07/29 05:54:36;;;;;;;6.68;6.07;;;;;;;25.09;72.13;100434.41;5057582;27;98784;-74
2023/07/29 05:57:04;;;;;;;7.80;6.25;;;;;;;25.17;71.96;100431.81;5056024;27;98573;-74
2023/07/29 05:59:30;;;;;;;8.85;6.88;;;;;;;25.30;70.64;100421.44;5054763;27;96916;-74
2023/07/29 06:01:57;;;;;;;8.30;6.18;;;;;;;25.65;69.87;100410.59;5055926;27;100540;-74
2023/07/29 06:04:23;;;;;;;13.15;6.53;;;;;;;25.75;68.86;100402.34;5055057;27;99633;-74
2023/07/29 06:06:50;;;;;;;6.32;5.72;;;;;;;25.74;69.35;100396.06;5053613;27;97009;-75
2023/07/29 06:09:16;;;;;;;6.75;5.50;;;;;;;25.81;68.68;100393.56;5062211;27;96790;-74
2023/07/29 06:11:43;;;;;;;7.15;5.65;;;;;;;25.98;67.59;100389.97;5055403;27;102616;-74
2023/07/29 06:14:11;;;;;;;7.55;5.72;;;;;;;25.76;68.36;100385.09;5066438;27;98072;-75
2023/07/29 06:16:37;;;;;;;8.10;5.25;;;;;;;25.86;68.24;100377.72;5055092;27;96825;-74
2023/07/29 06:19:04;;;;;;;6.15;5.55;;;;;;;26.12;67.67;100385.78;5054536;27;97739;-74
2023/07/29 06:21:30;;;;;;;7.25;5.75;;;;;;;26.00;67.88;100378.94;5056333;27;99076;-74
2023/07/29 06:23:57;;;;;;;6.50;5.10;;;;;;;26.61;66.63;100389.53;5052884;27;101890;-74
2023/07/29 06:26:23;;;;;;;8.15;5.32;;;;;;;27.12;63.21;100387.56;5055185;27;97963;-74
2023/07/29 06:28:50;;;;;;;9.77;5.05;;;;;;;27.19;62.58;100392.16;5052846;27;97325;-74
2023/07/29 06:31:18;;;;;;;5.75;5.00;;;;;;;27.47;61.89;100399.94;5053346;27;99300;-74
2023/07/29 06:33:44;;;;;;;5.70;4.60;;;;;;;26.92;63.30;100396.03;5060021;27;97980;-73
2023/07/29 06:36:11;;;;;;;5.88;5.30;;;;;;;26.98;63.53;100399.13;5049146;27;96897;-73
2023/07/29 06:38:38;;;;;;;5.25;4.43;;;;;;;26.50;65.26;100396.13;5047213;27;97168;-74
2023/07/29 06:41:05;;;;;;;4.82;4.43;;;;;;;26.76;64.77;100397.88;5052275;27;98910;-74
2023/07/29 06:43:31;;;;;;;4.82;4.18;;;;;;;26.91;65.03;100404.38;5053571;27;98489;-74
2023/07/29 06:45:58;;;;;;;5.07;4.10;;;;;;;26.88;64.37;100404.66;5053120;27;96714;-74
2023/07/29 06:48:25;;;;;;;6.38;3.70;;;;;;;27.13;63.71;100416.41;5055947;27;96942;-73
2023/07/29 06:50:52;;;;;;;3.97;3.67;;;;;;;27.13;62.88;100409.09;5045648;27;99678;-74
2023/07/29 06:53:18;;;;;;;4.60;4.10;;;;;;;27.12;63.22;100410.13;5051334;27;98732;-73
2023/07/29 06:55:45;;;;;;;6.80;3.95;;;;;;;27.51;62.46;100407.56;5053089;27;96953;-74
2023/07/29 06:58:11;;;;;;;3.88;3.53;;;;;;;27.42;62.89;100415.91;5061556;27;97001;-74
2023/07/29 07:00:37;;;;;;;4.22;3.90;;;;;;;27.13;63.50;100417.25;5048259;27;99393;-74
2023/07/29 07:03:04;;;;;;;6.20;4.38;;;;;;;27.22;63.48;100416.25;5051276;27;99069;-73
2023/07/29 07:05:32;;;;;;;4.90;3.70;;;;;;;27.31;63.04;100423.34;5048506;27;96857;-73
2023/07/29 07:07:58;;;;;;;5.38;4.43;;;;;;;27.21;63.38;100421.81;5051912;27;96838;-74
2023/07/29 07:10:24;;;;;;;3.88;3.58;;;;;;;27.05;64.48;100417.22;5058517;27;99622;-73
2023/07/29 07:12:51;;;;;;;3.75;3.45;;;;;;;27.04;64.86;100423.69;5050180;27;102032;-74
2023/07/29 07:15:18;;;;;;;3.67;3.28;;;;;;;27.24;64.38;100422.31;5050094;27;96771;-75
2023/07/29 07:17:44;;;;;;;7.22;4.10;;;;;;;27.11;64.32;100421.16;5046678;27;96877;-73
2023/07/29 07:20:12;;;;;;;5.15;4.00;;;;;;;26.68;65.58;100419.53;5054911;27;101783;-73
2023/07/29 07:22:40;;;;;;;4.25;3.85;;;;;;;27.12;64.32;100423.69;5054641;27;99501;-73
2023/07/29 07:25:07;;;;;;;5.22;4.63;;;;;;;27.15;64.08;100422.50;5054054;27;97394;-74
2023/07/29 07:27:33;;;;;;;5.45;3.95;;;;;;;27.05;64.60;100419.94;5055494;27;96851;-74
2023/07/29 07:30:00;;;;;;;6.70;3.97;;;;;;;26.91;65.23;100412.50;5054126;27;98956;-76
2023/07/29 07:32:27;;;;;;;6.65;4.50;;;;;;;26.82;65.19;100421.59;5056185;27;99338;-75
2023/07/29 07:34:53;;;;;;;7.78;4.63;;;;;;;27.18;64.00;100414.00;5052783;27;97006;-72
2023/07/29 07:37:19;;;;;;;4.93;4.40;;;;;;;27.03;64.15;100413.88;5058934;27;97451;-73
2023/07/29 07:39:48;;;;;;;5.00;4.50;;;;;;;27.36;63.59;100415.56;5046713;27;99349;-73
2023/07/29 07:42:14;;;;;;;6.75;3.92;;;;;;;27.71;63.07;100405.34;5051625;27;98040;-74
2023/07/29 07:44:41;;;;;;;5.50;4.28;;;;;;;27.80;62.43;100403.47;5046997;27;97160;-74
2023/07/29 07:47:07;;;;;;;5.50;4.10;;;;;;;27.89;61.67;100400.56;5051251;27;96920;-74
2023/07/29 07:49:33;;;;;;;7.07;3.80;;;;;;;27.85;61.47;100393.78;5042614;27;99068;-75
2023/07/29 07:52:01;;;;;;;4.20;3.80;;;;;;;27.72;61.68;100394.31;5052430;27;99470;-73
2023/07/29 07:54:27;;;;;;;4.88;4.35;;;;;;;27.87;60.98;100389.03;5051627;27;96909;-72
2023/07/29 07:56:56;;;;;;;5.93;4.00;;;;;;;27.98;60.04;100383.22;5053322;27;97053;-73
2023/07/29 07:59:22;;;;;;;7.00;3.92;;;;;;;28.16;59.90;100379.47;5059160;27;98827;-73
2023/07/29 08:01:48;;;;;;;5.18;3.75;;;;;;;28.10;60.45;100380.97;5048772;27;97912;-72
2023/07/29 08:04:15;;;;;;;3.92;3.63;;;;;;;28.44;58.43;100380.66;5049470;27;98550;-73
2023/07/29 08:06:41;;;;;;;5.63;3.25;;;;;;;28.53;58.56;100379.59;5055299;27;97186;-73
2023/07/29 08:09:08;;;;;;;4.00;3.70;;;;;;;28.74;58.12;100385.28;5049508;27;98988;-73
2023/07/29 08:11:34;;;;;;;4.00;3.70;;;;;;;29.28;56.31;100377.00;5054359;27;98733;-73
2023/07/29 08:14:03;;;;;;;5.40;3.22;;;;;;;29.11;56.12;100376.31;5047478;27;96959;-74
2023/07/29 08:16:30;;;;;;;4.93;3.47;;;;;;;29.16;56.75;100378.47;5049578;27;96870;-73
2023/07/29 08:18:56;;;;;;;3.72;3.30;;;;;;;29.22;56.17;100383.19;5048589;27;99187;-73
2023/07/29 08:21:22;;;;;;;7.45;3.10;;;;;;;29.65;55.30;100385.19;5047609;27;100065;-72
2023/07/29 08:23:49;;;;;;;3.92;3.45;;;;;;;29.16;56.42;100375.75;5052413;27;97322;-75
2023/07/29 08:26:16;;;;;;;3.63;2.90;;;;;;;29.27;56.72;100378.91;5047259;27;101161;-72
2023/07/29 08:28:43;;;;;;;4.88;3.30;;;;;;;28.80;56.51;100372.84;5034009;27;97711;-75
2023/07/29 08:31:10;;;;;;;3.17;2.88;;;;;;;29.46;55.46;100363.13;5040331;27;99101;-75
2023/07/29 08:33:37;;;;;;;5.22;2.90;;;;;;;29.51;56.29;100366.13;5039001;27;96869;-74
2023/07/29 08:36:04;;;;;;;3.85;2.70;;;;;;;29.92;54.22;100370.13;5039894;27;98936;-74
2023/07/29 08:38:30;;;;;;;9.80;2.80;;;;;;;29.37;55.09;100356.06;5041583;27;99223;-74
2023/07/29 08:41:00;;;;;;;3.85;2.80;;;;;;;29.75;54.87;100359.56;5049590;27;99012;-74
2023/07/29 08:43:30;;;;;;;2.85;2.60;;;;;;;29.59;54.79;100363.31;5052044;27;97150;-73
2023/07/29 08:45:58;;;;;;;4.93;2.60;;;;;;;29.31;56.32;100358.47;5052095;27;96717;-75
2023/07/29 08:48:32;;;;;;;2.63;2.42;;;;;;;28.89;56.56;100353.53;5056413;27;99358;-74
2023/07/29 08:51:01;;;;;;;2.42;2.33;;;;;;;28.77;56.79;100363.16;5052078;27;96766;-74
2023/07/29 08:53:29;;;;;;;2.35;2.15;;;;;;;28.28;58.41;100368.03;5053994;27;96992;-73
2023/07/29 08:55:56;;;;;;;4.22;2.40;;;;;;;28.62;58.34;100354.03;5065740;27;97841;-72
2023/07/29 08:58:24;;;;;;;5.72;2.63;;;;;;;28.71;57.66;100358.41;5055765;27;101023;-72
2023/07/29 09:00:51;;;;;;;4.60;2.40;;;;;;;28.66;58.26;100369.00;5055271;27;99913;-74
2023/07/29 09:03:18;;;;;;;3.28;2.30;;;;;;;28.85;57.60;100360.38;5055114;27;96843;-73
2023/07/29 09:05:46;;;;;;;2.40;2.30;;;;;;;28.72;57.18;100354.66;5054529;27;97146;-74
2023/07/29 09:08:13;;;;;;;3.88;2.20;;;;;;;29.00;56.83;100354.16;5056911;27;98469;-73
2023/07/29 09:10:39;;;;;;;5.30;2.72;;;;;;;29.25;56.68;100350.19;5053846;27;98899;-72
2023/07/29 09:13:06;;;;;;;2.55;2.35;;;;;;;29.47;55.85;100356.66;5057174;27;97057;-72
2023/07/29 09:15:34;;;;;;;2.33;2.20;;;;;;;29.48;54.63;100348.28;5048458;27;99093;-75
2023/07/29 09:18:10;;;;;;;3.95;2.30;;;;;;;29.35;54.87;100347.22;5052210;27;98916;-76
2023/07/29 09:20:36;;;;;;;4.78;2.75;;;;;;;29.54;54.36;100336.63;5043374;27;99135;-74
2023/07/29 09:23:08;;;;;;;2.30;2.20;;;;;;;29.67;54.41;100339.56;5045914;27;98244;-74
2023/07/29 09:25:35;;;;;;;2.65;2.45;;;;;;;29.25;55.10;100333.84;5044971;27;99769;-71
2023/07/29 09:28:02;;;;;;;2.72;2.10;;;;;;;29.55;54.88;100341.06;5036768;27;100905;-74
2023/07/29 09:30:29;;;;;;;2.00;1.90;;;;;;;29.58;54.62;100334.41;5036494;27;101517;-72
2023/07/29 09:32:56;;;;;;;4.40;2.28;;;;;;;29.67;54.59;100334.09;5054632;27;96832;-71
2023/07/29 09:35:24;;;;;;;2.40;2.20;;;;;;;29.63;54.87;100331.97;5048441;27;97022;-73
2023/07/29 09:37:52;;;;;;;2.40;2.20;;;;;;;29.83;54.01;100326.78;5042614;27;98492;-72
2023/07/29 09:40:20;;;;;;;2.13;1.92;;;;;;;30.09;53.39;100333.47;5050093;27;98307;-72
2023/07/29 09:42:50;;;;;;;1.92;1.83;;;;;;;29.93;53.60;100316.50;5063341;27;96904;-72
2023/07/29 09:45:21;;;;;;;2.20;2.00;;;;;;;30.21;52.75;100320.19;5049698;27;96942;-73
2023/07/29 09:47:48;;;;;;;2.88;2.25;;;;;;;29.85;53.68;100313.84;5038650;27;99346;-73
2023/07/29 09:50:14;;;;;;;5.47;2.10;;;;;;;29.80;54.48;100314.38;5041905;27;98641;-73
2023/07/29 09:52:42;;;;;;;2.35;2.15;;;;;;;29.70;53.82;100314.69;5032163;27;97567;-71
2023/07/29 09:55:11;;;;;;;3.35;2.10;;;;;;;29.93;53.64;100305.59;5035531;27;96960;-74
2023/07/29 09:57:39;;;;;;;2.17;2.00;;;;;;;30.01;53.21;100305.47;5033030;27;99999;-74
2023/07/29 10:00:11;;;;;;;4.30;2.22;;;;;;;30.47;51.93;100303.28;5037950;27;99289;-73
2023/07/29 10:02:39;;;;;;;2.30;1.85;;;;;;;30.39;52.44;100301.50;5041200;27;98702;-73
2023/07/29 10:05:07;;;;;;;3.67;1.73;;;;;;;30.38;51.43;100296.28;5036914;27;97321;-74
2023/07/29 10:07:34;;;;;;;1.85;1.75;;;;;;;30.60;51.55;100291.69;5042297;27;98898;-72
2023/07/29 10:10:03;;;;;;;1.90;1.80;;;;;;;30.72;50.91;100284.72;5036742;27;97498;-73
2023/07/29 10:12:31;;;;;;;2.05;1.70;;;;;;;30.62;50.52;100281.44;5039823;27;98255;-73
2023/07/29 10:15:01;;;;;;;2.53;1.48;;;;;;;30.68;50.70;100286.13;5041229;27;96964;-70
2023/07/29 10:17:27;;;;;;;1.67;1.58;;;;;;;30.61;50.83;100287.94;5039903;27;100051;-72
2023/07/29 10:19:56;;;;;;;3.38;1.70;;;;;;;30.68;50.63;100280.66;5032451;27;99438;-73
2023/07/29 10:22:26;;;;;;;5.50;1.67;;;;;;;30.35;50.07;100274.84;5032315;27;98771;-73
2023/07/29 10:24:55;;;;;;;1.92;1.58;;;;;;;30.30;51.61;100272.72;5034729;27;98627;-74
2023/07/29 10:27:23;;;;;;;1.73;1.63;;;;;;;30.37;52.00;100273.63;5034017;27;98972;-72
2023/07/29 10:29:50;;;;;;;2.35;1.63;;;;;;;30.17;51.78;100267.13;5033434;27;97687;-72
2023/07/29 10:32:17;;;;;;;1.90;1.70;;;;;;;30.39;50.28;100262.53;5034835;27;99272;-72
2023/07/29 10:34:44;;;;;;;1.95;1.60;;;;;;;30.58;49.75;100267.38;5037138;27;97650;-71
2023/07/29 10:37:11;;;;;;;2.65;1.40;;;;;;;30.65;50.24;100259.25;5038257;27;99031;-72
2023/07/29 10:39:42;;;;;;;3.50;1.67;;;;;;;30.94;48.29;100250.03;5039850;27;99346;-75
2023/07/29 10:42:09;;;;;;;1.48;1.35;;;;;;;30.85;48.66;100242.00;5035178;27;96914;-74
2023/07/29 10:44:49;;;;;;;3.08;1.40;;;;;;;30.76;48.18;100236.91;5040580;27;98711;-73
2023/07/29 10:47:17;;;;;;;1.90;1.40;;;;;;;30.38;49.40;100230.88;5042524;27;101638;-73
2023/07/29 10:49:45;;;;;;;3.15;1.60;;;;;;;30.02;50.56;100223.56;5032510;27;101752;-73
2023/07/29 10:52:14;;;;;;;1.98;1.70;;;;;;;29.84;51.62;100219.56;5040140;27;96847;-72
2023/07/29 10:54:46;;;;;;;1.50;1.40;;;;;;;29.64;51.94;100225.59;5038670;27;97774;-71
2023/07/29 10:57:16;;;;;;;2.28;1.17;;;;;;;29.69;52.89;100239.47;5041393;27;98017;-73
2023/07/29 10:59:55;;;;;;;2.63;1.20;;;;;;;28.84;53.88;100239.03;5050169;27;99027;-72
2023/07/29 11:02:30;;;;;;;3.08;1.50;;;;;;;28.68;52.66;100244.63;5047735;27;97053;-71
2023/07/29 11:04:57;;;;;;;4.40;2.95;;;;;;;28.62;54.40;100248.03;5041734;27;96767;-66
2023/07/29 11:07:28;;;;;;;1.45;1.35;;;;;;;28.53;54.50;100257.31;5050013;27;99700;-69
2023/07/29 11:10:00;;;;;;;2.50;1.63;;;;;;;28.34;55.29;100269.50;5049507;27;101152;-66
2023/07/29 11:12:45;;;;;;;1.88;1.45;;;;;;;28.04;56.08;100311.06;5049151;27;96823;-66
2023/07/29 11:15:20;;;;;;;5.22;1.52;;;;;;;26.92;65.43;100330.13;5042010;27;97611;-65
2023/07/29 11:17:50;;;;;;;1.70;1.17;;;;;;;25.42;72.82;100296.59;5046560;27;98875;-66
2023/07/29 11:20:18;;;;;;;6.15;1.30;;;;;;;24.98;77.58;100271.50;5036499;27;98865;-65
2023/07/29 11:22:45;;;;;;;7.03;1.58;;;;;;;24.69;75.55;100281.69;5032056;27;97172;-64
2023/07/29 11:25:13;;;;;;;4.55;0.77;;;;;;;24.83;74.71;100282.97;5049559;27;98452;-64